sensor_id;sensor_type;location;lat;lon;timestamp;pressure;altitude;pressure_sealevel;temperature;humidity
51261;BME280;61705;46.228;24.812;2023-02-13T00:00:17;99474.25;;;-8.91;89.63
51261;BME280;61705;46.228;24.812;2023-02-13T00:02:44;99481.50;;;-8.84;89.61
51261;BME280;61705;46.228;24.812;2023-02-13T00:05:10;99475.06;;;-8.92;89.41
51261;BME280;61705;46.228;24.812;2023-02-13T00:07:37;99473.75;;;-8.85;89.14
51261;BME280;61705;46.228;24.812;2023-02-13T00:10:04;99467.13;;;-8.81;89.08
51261;BME280;61705;46.228;24.812;2023-02-13T00:12:31;99464.56;;;-8.81;89.27
51261;BME280;61705;46.228;24.812;2023-02-13T00:14:58;99461.06;;;-8.97;89.03
51261;BME280;61705;46.228;24.812;2023-02-13T00:17:26;99463.56;;;-8.98;88.57
51261;BME280;61705;46.228;24.812;2023-02-13T00:19:52;99464.06;;;-9.04;88.38
51261;BME280;61705;46.228;24.812;2023-02-13T00:22:19;99462.56;;;-9.00;88.68
51261;BME280;61705;46.228;24.812;2023-02-13T00:24:46;99459.50;;;-8.95;88.73
51261;BME280;61705;46.228;24.812;2023-02-13T00:27:12;99451.72;;;-8.96;88.54
51261;BME280;61705;46.228;24.812;2023-02-13T00:29:39;99454.09;;;-8.99;88.65
51261;BME280;61705;46.228;24.812;2023-02-13T00:32:06;99457.94;;;-9.06;88.08
51261;BME280;61705;46.228;24.812;2023-02-13T00:34:33;99460.56;;;-9.47;87.88
51261;BME280;61705;46.228;24.812;2023-02-13T00:36:59;99460.75;;;-9.44;88.48
51261;BME280;61705;46.228;24.812;2023-02-13T00:39:26;99456.47;;;-9.31;88.84
51261;BME280;61705;46.228;24.812;2023-02-13T00:41:53;99450.34;;;-9.19;88.36
51261;BME280;61705;46.228;24.812;2023-02-13T00:44:19;99451.16;;;-9.34;88.32
51261;BME280;61705;46.228;24.812;2023-02-13T00:46:46;99449.41;;;-9.35;88.65
51261;BME280;61705;46.228;24.812;2023-02-13T00:49:13;99452.09;;;-9.46;88.32
51261;BME280;61705;46.228;24.812;2023-02-13T00:51:39;99451.16;;;-9.62;87.95
51261;BME280;61705;46.228;24.812;2023-02-13T00:54:06;99448.31;;;-9.66;88.15
51261;BME280;61705;46.228;24.812;2023-02-13T00:56:33;99445.59;;;-9.96;87.68
51261;BME280;61705;46.228;24.812;2023-02-13T00:58:59;99444.78;;;-9.95;87.87
51261;BME280;61705;46.228;24.812;2023-02-13T01:01:26;99433.19;;;-9.90;88.43
51261;BME280;61705;46.228;24.812;2023-02-13T01:03:53;99434.19;;;-9.88;88.44
51261;BME280;61705;46.228;24.812;2023-02-13T01:06:19;99439.38;;;-9.86;88.14
51261;BME280;61705;46.228;24.812;2023-02-13T01:08:46;99438.72;;;-9.97;88.11
51261;BME280;61705;46.228;24.812;2023-02-13T01:11:14;99433.69;;;-9.95;88.29
51261;BME280;61705;46.228;24.812;2023-02-13T01:13:40;99437.31;;;-10.05;88.57
51261;BME280;61705;46.228;24.812;2023-02-13T01:16:07;99430.81;;;-10.28;88.72
51261;BME280;61705;46.228;24.812;2023-02-13T01:18:34;99440.69;;;-10.33;88.84
51261;BME280;61705;46.228;24.812;2023-02-13T01:21:04;99449.06;;;-10.35;88.88
51261;BME280;61705;46.228;24.812;2023-02-13T01:23:35;99441.38;;;-10.22;89.52
51261;BME280;61705;46.228;24.812;2023-02-13T01:26:07;99438.53;;;-10.27;89.22
51261;BME280;61705;46.228;24.812;2023-02-13T01:28:34;99433.00;;;-10.19;89.00
51261;BME280;61705;46.228;24.812;2023-02-13T01:31:01;99426.81;;;-10.23;88.72
51261;BME280;61705;46.228;24.812;2023-02-13T01:33:28;99427.69;;;-10.22;89.05
51261;BME280;61705;46.228;24.812;2023-02-13T01:35:55;99425.25;;;-10.21;89.21
51261;BME280;61705;46.228;24.812;2023-02-13T01:38:22;99424.28;;;-10.50;88.75
51261;BME280;61705;46.228;24.812;2023-02-13T01:40:51;99423.59;;;-10.60;89.15
51261;BME280;61705;46.228;24.812;2023-02-13T01:43:18;99427.84;;;-10.34;89.11
51261;BME280;61705;46.228;24.812;2023-02-13T01:45:52;99422.81;;;-10.33;89.35
51261;BME280;61705;46.228;24.812;2023-02-13T01:48:22;99422.13;;;-10.43;88.99
51261;BME280;61705;46.228;24.812;2023-02-13T01:50:55;99434.00;;;-10.57;89.10
51261;BME280;61705;46.228;24.812;2023-02-13T01:55:59;99431.59;;;-10.42;88.74
51261;BME280;61705;46.228;24.812;2023-02-13T01:58:32;99443.31;;;-10.71;88.79
51261;BME280;61705;46.228;24.812;2023-02-13T02:01:01;99438.72;;;-10.50;89.48
51261;BME280;61705;46.228;24.812;2023-02-13T02:03:47;99432.66;;;-10.39;89.27
51261;BME280;61705;46.228;24.812;2023-02-13T02:06:21;99425.69;;;-10.41;88.80
51261;BME280;61705;46.228;24.812;2023-02-13T02:08:49;99426.16;;;-10.34;89.38
51261;BME280;61705;46.228;24.812;2023-02-13T02:12:00;99429.97;;;-10.54;89.46
51261;BME280;61705;46.228;24.812;2023-02-13T02:14:25;99437.81;;;-10.64;89.51
51261;BME280;61705;46.228;24.812;2023-02-13T02:16:52;99425.69;;;-10.93;89.77
51261;BME280;61705;46.228;24.812;2023-02-13T02:19:41;99428.72;;;-10.99;90.00
51261;BME280;61705;46.228;24.812;2023-02-13T02:27:55;99425.16;;;-10.62;90.35
51261;BME280;61705;46.228;24.812;2023-02-13T02:33:38;99419.75;;;-10.54;90.86
51261;BME280;61705;46.228;24.812;2023-02-13T02:39:07;99414.47;;;-10.43;91.25
51261;BME280;61705;46.228;24.812;2023-02-13T02:53:14;99440.13;;;-10.29;91.67
51261;BME280;61705;46.228;24.812;2023-02-13T02:58:47;99445.41;;;-10.26;91.75
51261;BME280;61705;46.228;24.812;2023-02-13T03:01:35;99446.50;;;-10.22;91.49
51261;BME280;61705;46.228;24.812;2023-02-13T03:04:25;99446.97;;;-10.14;91.01
51261;BME280;61705;46.228;24.812;2023-02-13T03:07:15;99451.50;;;-10.37;91.05
51261;BME280;61705;46.228;24.812;2023-02-13T03:09:46;99459.38;;;-10.34;91.38
51261;BME280;61705;46.228;24.812;2023-02-13T03:12:37;99456.53;;;-10.25;91.43
51261;BME280;61705;46.228;24.812;2023-02-13T03:15:25;99469.31;;;-10.38;91.84
51261;BME280;61705;46.228;24.812;2023-02-13T03:17:53;99460.38;;;-10.32;92.07
51261;BME280;61705;46.228;24.812;2023-02-13T03:21:03;99457.91;;;-10.30;91.97
51261;BME280;61705;46.228;24.812;2023-02-13T03:24:00;99466.44;;;-10.30;91.79
51261;BME280;61705;46.228;24.812;2023-02-13T03:41:33;99471.47;;;-10.05;91.66
51261;BME280;61705;46.228;24.812;2023-02-13T03:46:47;99474.22;;;-10.15;91.46
51261;BME280;61705;46.228;24.812;2023-02-13T03:49:25;99466.84;;;-10.10;91.16
51261;BME280;61705;46.228;24.812;2023-02-13T03:52:28;99463.09;;;-10.02;91.18
51261;BME280;61705;46.228;24.812;2023-02-13T03:55:08;99471.28;;;-10.08;91.14
51261;BME280;61705;46.228;24.812;2023-02-13T03:57:58;99472.75;;;-9.98;91.11
51261;BME280;61705;46.228;24.812;2023-02-13T04:00:48;99471.84;;;-9.98;90.88
51261;BME280;61705;46.228;24.812;2023-02-13T04:03:25;99485.53;;;-10.11;90.67
51261;BME280;61705;46.228;24.812;2023-02-13T04:06:05;99469.69;;;-10.06;91.02
51261;BME280;61705;46.228;24.812;2023-02-13T04:08:34;99482.16;;;-10.10;91.57
51261;BME280;61705;46.228;24.812;2023-02-13T04:14:32;99475.88;;;-10.02;91.73
51261;BME280;61705;46.228;24.812;2023-02-13T04:17:06;99470.66;;;-10.04;91.69
51261;BME280;61705;46.228;24.812;2023-02-13T04:19:34;99475.19;;;-9.99;91.69
51261;BME280;61705;46.228;24.812;2023-02-13T04:22:01;99485.81;;;-10.07;91.28
51261;BME280;61705;46.228;24.812;2023-02-13T04:24:28;99481.88;;;-10.15;91.45
51261;BME280;61705;46.228;24.812;2023-02-13T04:26:56;99479.91;;;-10.06;91.27
51261;BME280;61705;46.228;24.812;2023-02-13T04:29:24;99483.34;;;-10.05;90.94
51261;BME280;61705;46.228;24.812;2023-02-13T04:31:51;99485.13;;;-10.04;90.75
51261;BME280;61705;46.228;24.812;2023-02-13T04:34:18;99477.75;;;-9.99;90.95
51261;BME280;61705;46.228;24.812;2023-02-13T04:36:46;99492.19;;;-10.00;91.19
51261;BME280;61705;46.228;24.812;2023-02-13T04:39:12;99487.88;;;-9.88;90.90
51261;BME280;61705;46.228;24.812;2023-02-13T04:41:39;99491.22;;;-9.89;91.36
51261;BME280;61705;46.228;24.812;2023-02-13T04:44:06;99489.94;;;-9.82;91.58
51261;BME280;61705;46.228;24.812;2023-02-13T04:46:33;99493.16;;;-9.71;90.90
51261;BME280;61705;46.228;24.812;2023-02-13T04:48:59;99498.19;;;-9.86;90.74
51261;BME280;61705;46.228;24.812;2023-02-13T04:51:26;99497.81;;;-9.92;91.07
51261;BME280;61705;46.228;24.812;2023-02-13T04:53:55;99501.84;;;-9.96;90.91
51261;BME280;61705;46.228;24.812;2023-02-13T04:56:21;99497.59;;;-9.95;90.99
51261;BME280;61705;46.228;24.812;2023-02-13T04:58:48;99495.25;;;-9.92;90.84
51261;BME280;61705;46.228;24.812;2023-02-13T05:01:16;99499.19;;;-9.97;90.40
51261;BME280;61705;46.228;24.812;2023-02-13T05:03:43;99502.72;;;-10.09;90.07
51261;BME280;61705;46.228;24.812;2023-02-13T05:06:10;99502.53;;;-10.12;91.09
51261;BME280;61705;46.228;24.812;2023-02-13T05:08:36;99502.53;;;-10.12;91.18
51261;BME280;61705;46.228;24.812;2023-02-13T05:11:03;99507.34;;;-10.03;91.31
51261;BME280;61705;46.228;24.812;2023-02-13T05:13:30;99504.78;;;-9.90;91.29
51261;BME280;61705;46.228;24.812;2023-02-13T05:15:57;99505.38;;;-9.81;90.92
51261;BME280;61705;46.228;24.812;2023-02-13T05:18:24;99507.63;;;-9.85;90.62
51261;BME280;61705;46.228;24.812;2023-02-13T05:20:50;99507.75;;;-9.97;91.06
51261;BME280;61705;46.228;24.812;2023-02-13T05:23:36;99521.50;;;-10.08;91.56
51261;BME280;61705;46.228;24.812;2023-02-13T05:26:03;99526.41;;;-10.11;91.85
51261;BME280;61705;46.228;24.812;2023-02-13T05:28:29;99525.22;;;-10.16;92.08
51261;BME280;61705;46.228;24.812;2023-02-13T05:31:14;99529.66;;;-10.14;91.85
51261;BME280;61705;46.228;24.812;2023-02-13T05:33:41;99526.22;;;-10.14;91.95
51261;BME280;61705;46.228;24.812;2023-02-13T05:36:08;99524.97;;;-9.94;91.90
51261;BME280;61705;46.228;24.812;2023-02-13T05:38:35;99533.59;;;-9.92;92.01
51261;BME280;61705;46.228;24.812;2023-02-13T05:41:01;99523.84;;;-9.85;91.95
51261;BME280;61705;46.228;24.812;2023-02-13T05:43:28;99524.06;;;-9.95;91.41
51261;BME280;61705;46.228;24.812;2023-02-13T05:46:07;99524.16;;;-9.93;91.29
51261;BME280;61705;46.228;24.812;2023-02-13T05:48:34;99531.84;;;-9.80;91.18
51261;BME280;61705;46.228;24.812;2023-02-13T05:51:01;99531.94;;;-9.79;91.51
51261;BME280;61705;46.228;24.812;2023-02-13T05:53:28;99529.69;;;-9.74;91.35
51261;BME280;61705;46.228;24.812;2023-02-13T05:55:55;99531.66;;;-9.70;91.43
51261;BME280;61705;46.228;24.812;2023-02-13T05:58:24;99530.03;;;-9.68;91.17
51261;BME280;61705;46.228;24.812;2023-02-13T06:00:55;99535.19;;;-9.94;91.05
51261;BME280;61705;46.228;24.812;2023-02-13T06:03:24;99534.88;;;-9.99;91.13
51261;BME280;61705;46.228;24.812;2023-02-13T06:05:53;99539.31;;;-9.96;91.16
51261;BME280;61705;46.228;24.812;2023-02-13T06:08:20;99534.88;;;-9.99;90.89
51261;BME280;61705;46.228;24.812;2023-02-13T06:10:48;99543.44;;;-9.85;90.93
51261;BME280;61705;46.228;24.812;2023-02-13T06:13:17;99540.28;;;-9.81;91.08
51261;BME280;61705;46.228;24.812;2023-02-13T06:15:44;99534.19;;;-9.83;90.62
51261;BME280;61705;46.228;24.812;2023-02-13T06:18:11;99535.47;;;-9.63;90.71
51261;BME280;61705;46.228;24.812;2023-02-13T06:20:38;99543.75;;;-9.67;90.74
51261;BME280;61705;46.228;24.812;2023-02-13T06:23:07;99539.09;;;-9.99;90.19
51261;BME280;61705;46.228;24.812;2023-02-13T06:25:34;99543.03;;;-10.05;90.31
51261;BME280;61705;46.228;24.812;2023-02-13T06:28:03;99539.00;;;-10.14;90.21
51261;BME280;61705;46.228;24.812;2023-02-13T06:30:30;99542.63;;;-10.11;90.63
51261;BME280;61705;46.228;24.812;2023-02-13T06:32:57;99543.03;;;-9.91;90.38
51261;BME280;61705;46.228;24.812;2023-02-13T06:35:25;99535.47;;;-9.76;90.45
51261;BME280;61705;46.228;24.812;2023-02-13T06:37:51;99538.13;;;-9.75;90.41
51261;BME280;61705;46.228;24.812;2023-02-13T06:40:18;99536.47;;;-9.88;90.38
51261;BME280;61705;46.228;24.812;2023-02-13T06:42:45;99540.78;;;-10.00;90.34
51261;BME280;61705;46.228;24.812;2023-02-13T06:45:12;99535.47;;;-10.03;90.53
51261;BME280;61705;46.228;24.812;2023-02-13T06:47:44;99525.63;;;-9.97;90.50
51261;BME280;61705;46.228;24.812;2023-02-13T06:50:12;99534.41;;;-9.80;90.27
51261;BME280;61705;46.228;24.812;2023-02-13T06:52:45;99530.16;;;-9.80;90.25
51261;BME280;61705;46.228;24.812;2023-02-13T06:55:12;99530.63;;;-9.98;90.57
51261;BME280;61705;46.228;24.812;2023-02-13T06:57:41;99529.97;;;-9.83;90.56
51261;BME280;61705;46.228;24.812;2023-02-13T07:00:08;99541.06;;;-9.56;90.97
51261;BME280;61705;46.228;24.812;2023-02-13T07:02:39;99541.75;;;-9.58;90.85
51261;BME280;61705;46.228;24.812;2023-02-13T07:05:06;99541.06;;;-9.29;90.49
51261;BME280;61705;46.228;24.812;2023-02-13T07:07:35;99532.09;;;-9.36;90.29
51261;BME280;61705;46.228;24.812;2023-02-13T07:10:04;99537.84;;;-9.12;90.66
51261;BME280;61705;46.228;24.812;2023-02-13T07:12:35;99536.97;;;-9.12;89.82
51261;BME280;61705;46.228;24.812;2023-02-13T07:15:03;99532.34;;;-9.18;90.10
51261;BME280;61705;46.228;24.812;2023-02-13T07:17:30;99525.69;;;-8.73;89.78
51261;BME280;61705;46.228;24.812;2023-02-13T07:19:57;99526.31;;;-8.77;89.67
51261;BME280;61705;46.228;24.812;2023-02-13T07:22:24;99530.63;;;-8.76;89.63
51261;BME280;61705;46.228;24.812;2023-02-13T07:24:51;99527.34;;;-8.88;89.30
51261;BME280;61705;46.228;24.812;2023-02-13T07:27:17;99532.69;;;-8.70;89.49
51261;BME280;61705;46.228;24.812;2023-02-13T07:29:58;99522.56;;;-8.82;88.90
51261;BME280;61705;46.228;24.812;2023-02-13T07:32:33;99530.00;;;-8.72;89.08
51261;BME280;61705;46.228;24.812;2023-02-13T07:35:00;99522.88;;;-8.77;88.82
51261;BME280;61705;46.228;24.812;2023-02-13T07:37:29;99515.50;;;-8.86;88.63
51261;BME280;61705;46.228;24.812;2023-02-13T07:39:57;99525.69;;;-8.73;88.60
51261;BME280;61705;46.228;24.812;2023-02-13T07:42:24;99520.78;;;-8.55;88.58
51261;BME280;61705;46.228;24.812;2023-02-13T07:44:51;99516.91;;;-8.33;88.82
51261;BME280;61705;46.228;24.812;2023-02-13T07:47:21;99512.81;;;-8.60;88.06
51261;BME280;61705;46.228;24.812;2023-02-13T07:49:47;99516.19;;;-8.61;88.41
51261;BME280;61705;46.228;24.812;2023-02-13T07:52:16;99515.84;;;-8.52;88.30
51261;BME280;61705;46.228;24.812;2023-02-13T07:54:49;99515.09;;;-8.35;88.56
51261;BME280;61705;46.228;24.812;2023-02-13T07:57:16;99520.63;;;-8.43;88.09
51261;BME280;61705;46.228;24.812;2023-02-13T07:59:44;99507.00;;;-8.13;88.42
51261;BME280;61705;46.228;24.812;2023-02-13T08:02:12;99520.97;;;-7.93;88.31
51261;BME280;61705;46.228;24.812;2023-02-13T08:04:42;99513.44;;;-7.90;87.74
51261;BME280;61705;46.228;24.812;2023-02-13T08:07:13;99517.31;;;-7.81;87.75
51261;BME280;61705;46.228;24.812;2023-02-13T08:09:43;99517.38;;;-7.80;87.67
51261;BME280;61705;46.228;24.812;2023-02-13T08:12:29;99510.75;;;-7.76;87.24
51261;BME280;61705;46.228;24.812;2023-02-13T08:14:57;99509.41;;;-7.70;87.16
51261;BME280;61705;46.228;24.812;2023-02-13T08:17:23;99514.44;;;-7.56;87.26
51261;BME280;61705;46.228;24.812;2023-02-13T08:19:50;99501.59;;;-7.56;86.98
51261;BME280;61705;46.228;24.812;2023-02-13T08:22:17;99502.22;;;-7.60;86.87
51261;BME280;61705;46.228;24.812;2023-02-13T08:24:43;99506.94;;;-7.37;86.87
51261;BME280;61705;46.228;24.812;2023-02-13T08:27:12;99510.53;;;-7.50;86.90
51261;BME280;61705;46.228;24.812;2023-02-13T08:29:39;99493.31;;;-7.36;86.85
51261;BME280;61705;46.228;24.812;2023-02-13T08:32:06;99489.00;;;-7.04;86.70
51261;BME280;61705;46.228;24.812;2023-02-13T08:34:32;99492.16;;;-6.94;86.67
51261;BME280;61705;46.228;24.812;2023-02-13T08:37:00;99487.09;;;-6.76;86.58
51261;BME280;61705;46.228;24.812;2023-02-13T08:39:27;99486.50;;;-6.70;86.19
51261;BME280;61705;46.228;24.812;2023-02-13T08:41:54;99488.75;;;-6.60;86.14
51261;BME280;61705;46.228;24.812;2023-02-13T08:44:23;99483.94;;;-6.54;85.85
51261;BME280;61705;46.228;24.812;2023-02-13T08:46:50;99482.06;;;-6.40;85.78
51261;BME280;61705;46.228;24.812;2023-02-13T08:49:17;99476.50;;;-6.31;85.69
51261;BME280;61705;46.228;24.812;2023-02-13T08:51:43;99477.84;;;-6.22;85.79
51261;BME280;61705;46.228;24.812;2023-02-13T08:54:10;99474.63;;;-6.17;85.52
51261;BME280;61705;46.228;24.812;2023-02-13T08:56:37;99478.75;;;-6.03;85.37
51261;BME280;61705;46.228;24.812;2023-02-13T08:59:03;99484.19;;;-5.97;85.23
51261;BME280;61705;46.228;24.812;2023-02-13T09:01:30;99477.47;;;-5.76;85.49
51261;BME280;61705;46.228;24.812;2023-02-13T09:04:01;99475.41;;;-5.65;85.30
51261;BME280;61705;46.228;24.812;2023-02-13T09:06:28;99485.34;;;-5.73;84.96
51261;BME280;61705;46.228;24.812;2023-02-13T09:08:57;99480.72;;;-5.80;84.46
51261;BME280;61705;46.228;24.812;2023-02-13T09:11:24;99475.03;;;-5.73;85.07
51261;BME280;61705;46.228;24.812;2023-02-13T09:13:53;99484.00;;;-5.64;84.92
51261;BME280;61705;46.228;24.812;2023-02-13T09:16:20;99480.19;;;-5.73;84.77
51261;BME280;61705;46.228;24.812;2023-02-13T09:18:50;99479.97;;;-5.59;84.86
51261;BME280;61705;46.228;24.812;2023-02-13T09:21:19;99471.78;;;-5.33;84.90
51261;BME280;61705;46.228;24.812;2023-02-13T09:23:46;99476.41;;;-5.26;84.77
51261;BME280;61705;46.228;24.812;2023-02-13T09:26:14;99479.66;;;-5.10;84.46
51261;BME280;61705;46.228;24.812;2023-02-13T09:28:41;99479.22;;;-5.02;84.09
51261;BME280;61705;46.228;24.812;2023-02-13T09:31:13;99471.75;;;-4.95;84.29
51261;BME280;61705;46.228;24.812;2023-02-13T09:33:42;99473.94;;;-4.85;84.09
51261;BME280;61705;46.228;24.812;2023-02-13T09:36:15;99467.94;;;-4.84;84.14
51261;BME280;61705;46.228;24.812;2023-02-13T09:38:42;99473.03;;;-4.66;84.44
51261;BME280;61705;46.228;24.812;2023-02-13T09:41:21;99465.06;;;-4.52;84.07
51261;BME280;61705;46.228;24.812;2023-02-13T09:43:52;99454.72;;;-4.32;84.00
51261;BME280;61705;46.228;24.812;2023-02-13T09:46:31;99460.53;;;-4.17;84.05
51261;BME280;61705;46.228;24.812;2023-02-13T09:49:01;99457.56;;;-4.05;83.38
51261;BME280;61705;46.228;24.812;2023-02-13T09:51:31;99451.78;;;-3.99;83.03
51261;BME280;61705;46.228;24.812;2023-02-13T09:54:05;99456.50;;;-3.89;83.07
51261;BME280;61705;46.228;24.812;2023-02-13T10:15:50;99441.69;;;-3.27;82.59
51261;BME280;61705;46.228;24.812;2023-02-13T10:18:27;99431.78;;;-3.15;82.36
51261;BME280;61705;46.228;24.812;2023-02-13T10:21:00;99419.84;;;-3.12;82.05
51261;BME280;61705;46.228;24.812;2023-02-13T10:23:32;99417.84;;;-2.96;82.31
51261;BME280;61705;46.228;24.812;2023-02-13T10:26:05;99415.13;;;-2.75;81.86
51261;BME280;61705;46.228;24.812;2023-02-13T10:29:03;99415.72;;;-2.58;81.56
51261;BME280;61705;46.228;24.812;2023-02-13T10:31:50;99408.94;;;-2.55;81.19
51261;BME280;61705;46.228;24.812;2023-02-13T10:34:24;99406.47;;;-2.52;80.86
51261;BME280;61705;46.228;24.812;2023-02-13T10:36:52;99396.72;;;-2.33;81.30
51261;BME280;61705;46.228;24.812;2023-02-13T10:39:25;99399.03;;;-2.43;80.65
51261;BME280;61705;46.228;24.812;2023-02-13T10:42:06;99399.19;;;-2.36;80.68
51261;BME280;61705;46.228;24.812;2023-02-13T11:01:18;99375.69;;;-1.33;80.07
51261;BME280;61705;46.228;24.812;2023-02-13T11:04:07;99376.88;;;-1.22;79.83
51261;BME280;61705;46.228;24.812;2023-02-13T11:06:38;99370.16;;;-1.15;79.41
51261;BME280;61705;46.228;24.812;2023-02-13T11:09:08;99372.94;;;-1.09;79.18
51261;BME280;61705;46.228;24.812;2023-02-13T11:11:41;99372.28;;;-1.00;79.28
51261;BME280;61705;46.228;24.812;2023-02-13T11:17:04;99374.31;;;-0.90;79.67
51261;BME280;61705;46.228;24.812;2023-02-13T11:19:38;99362.34;;;-0.85;79.56
51261;BME280;61705;46.228;24.812;2023-02-13T11:22:12;99359.19;;;-0.73;79.37
51261;BME280;61705;46.228;24.812;2023-02-13T11:24:40;99369.16;;;-0.55;79.14
51261;BME280;61705;46.228;24.812;2023-02-13T11:27:10;99354.97;;;-0.35;78.66
51261;BME280;61705;46.228;24.812;2023-02-13T11:30:00;99350.00;;;-0.27;78.73
51261;BME280;61705;46.228;24.812;2023-02-13T11:32:30;99351.91;;;-0.18;78.58
51261;BME280;61705;46.228;24.812;2023-02-13T11:35:15;99359.16;;;-0.05;77.79
51261;BME280;61705;46.228;24.812;2023-02-13T11:37:43;99361.16;;;0.07;78.14
51261;BME280;61705;46.228;24.812;2023-02-13T11:40:30;99349.16;;;0.12;78.01
51261;BME280;61705;46.228;24.812;2023-02-13T11:42:57;99346.09;;;0.28;77.79
51261;BME280;61705;46.228;24.812;2023-02-13T11:45:24;99346.78;;;0.21;77.75
51261;BME280;61705;46.228;24.812;2023-02-13T11:47:53;99342.88;;;0.40;77.19
51261;BME280;61705;46.228;24.812;2023-02-13T11:50:24;99341.13;;;0.39;77.10
51261;BME280;61705;46.228;24.812;2023-02-13T11:55:32;99339.78;;;0.18;77.31
51261;BME280;61705;46.228;24.812;2023-02-13T12:00:41;99331.94;;;0.15;76.87
51261;BME280;61705;46.228;24.812;2023-02-13T12:08:37;99320.09;;;0.30;76.54
51261;BME280;61705;46.228;24.812;2023-02-13T12:11:20;99328.25;;;0.45;76.44
51261;BME280;61705;46.228;24.812;2023-02-13T12:13:49;99330.06;;;0.49;76.00
51261;BME280;61705;46.228;24.812;2023-02-13T12:16:33;99308.31;;;0.45;75.90
51261;BME280;61705;46.228;24.812;2023-02-13T12:19:05;99314.41;;;0.46;75.56
51261;BME280;61705;46.228;24.812;2023-02-13T12:26:59;99302.69;;;0.68;74.72
51261;BME280;61705;46.228;24.812;2023-02-13T12:29:57;99301.94;;;0.74;74.45
51261;BME280;61705;46.228;24.812;2023-02-13T12:32:46;99288.25;;;0.82;74.09
51261;BME280;61705;46.228;24.812;2023-02-13T12:46:06;99286.59;;;0.86;73.49
51261;BME280;61705;46.228;24.812;2023-02-13T12:48:56;99287.41;;;0.83;73.36
51261;BME280;61705;46.228;24.812;2023-02-13T13:14:07;99252.50;;;1.21;71.82
51261;BME280;61705;46.228;24.812;2023-02-13T13:17:03;99254.25;;;1.20;71.73
51261;BME280;61705;46.228;24.812;2023-02-13T13:19:57;99259.56;;;1.28;71.79
51261;BME280;61705;46.228;24.812;2023-02-13T13:22:39;99253.44;;;1.26;71.95
51261;BME280;61705;46.228;24.812;2023-02-13T13:25:28;99257.72;;;1.21;72.04
51261;BME280;61705;46.228;24.812;2023-02-13T13:28:03;99249.91;;;1.21;72.43
51261;BME280;61705;46.228;24.812;2023-02-13T13:30:35;99240.31;;;1.19;72.59
51261;BME280;61705;46.228;24.812;2023-02-13T13:33:16;99247.06;;;1.07;73.00
51261;BME280;61705;46.228;24.812;2023-02-13T13:42:03;99240.09;;;1.06;72.80
51261;BME280;61705;46.228;24.812;2023-02-13T13:44:49;99238.63;;;1.22;72.56
51261;BME280;61705;46.228;24.812;2023-02-13T13:47:35;99237.13;;;1.36;72.17
51261;BME280;61705;46.228;24.812;2023-02-13T13:50:20;99237.06;;;1.31;72.04
51261;BME280;61705;46.228;24.812;2023-02-13T13:53:20;99245.88;;;1.39;72.44
51261;BME280;61705;46.228;24.812;2023-02-13T13:58:43;99240.56;;;1.33;72.65
51261;BME280;61705;46.228;24.812;2023-02-13T14:01:21;99238.94;;;1.40;72.37
51261;BME280;61705;46.228;24.812;2023-02-13T14:14:53;99236.41;;;1.45;72.08
51261;BME280;61705;46.228;24.812;2023-02-13T14:20:29;99221.63;;;1.43;71.36
51261;BME280;61705;46.228;24.812;2023-02-13T14:23:12;99234.84;;;1.54;71.79
51261;BME280;61705;46.228;24.812;2023-02-13T14:25:40;99230.50;;;1.55;71.44
51261;BME280;61705;46.228;24.812;2023-02-13T14:28:23;99230.56;;;1.58;71.71
51261;BME280;61705;46.228;24.812;2023-02-13T14:31:05;99226.28;;;1.63;70.79
51261;BME280;61705;46.228;24.812;2023-02-13T14:33:33;99220.13;;;1.59;70.78
51261;BME280;61705;46.228;24.812;2023-02-13T14:36:20;99223.50;;;1.52;71.34
51261;BME280;61705;46.228;24.812;2023-02-13T14:38:55;99213.09;;;1.51;70.50
51261;BME280;61705;46.228;24.812;2023-02-13T14:46:53;99210.88;;;1.80;70.81
51261;BME280;61705;46.228;24.812;2023-02-13T14:49:28;99211.22;;;2.04;69.74
51261;BME280;61705;46.228;24.812;2023-02-13T14:52:02;99218.25;;;2.11;70.73
51261;BME280;61705;46.228;24.812;2023-02-13T14:54:41;99208.00;;;2.24;70.62
51261;BME280;61705;46.228;24.812;2023-02-13T14:57:28;99209.69;;;2.22;70.12
51261;BME280;61705;46.228;24.812;2023-02-13T15:00:08;99219.09;;;2.07;70.81
51261;BME280;61705;46.228;24.812;2023-02-13T15:02:45;99223.47;;;2.10;71.42
51261;BME280;61705;46.228;24.812;2023-02-13T15:05:17;99223.97;;;1.84;71.81
51261;BME280;61705;46.228;24.812;2023-02-13T15:07:50;99218.34;;;1.55;72.46
51261;BME280;61705;46.228;24.812;2023-02-13T15:13:01;99214.00;;;1.56;72.31
51261;BME280;61705;46.228;24.812;2023-02-13T15:15:34;99213.09;;;1.51;71.89
51261;BME280;61705;46.228;24.812;2023-02-13T15:18:15;99213.91;;;0.97;73.24
51261;BME280;61705;46.228;24.812;2023-02-13T15:20:47;99214.84;;;0.52;73.73
51261;BME280;61705;46.228;24.812;2023-02-13T15:23:22;99217.72;;;0.23;74.59
51261;BME280;61705;46.228;24.812;2023-02-13T15:25:56;99219.88;;;0.02;74.91
51261;BME280;61705;46.228;24.812;2023-02-13T15:28:24;99222.16;;;-0.12;75.18
51261;BME280;61705;46.228;24.812;2023-02-13T15:30:58;99217.69;;;-0.19;75.27
51261;BME280;61705;46.228;24.812;2023-02-13T15:33:46;99220.78;;;-0.34;75.78
51261;BME280;61705;46.228;24.812;2023-02-13T15:36:18;99221.41;;;-0.46;76.06
51261;BME280;61705;46.228;24.812;2023-02-13T15:38:46;99219.34;;;-0.61;76.48
51261;BME280;61705;46.228;24.812;2023-02-13T15:41:18;99212.34;;;-0.63;76.63
51261;BME280;61705;46.228;24.812;2023-02-13T15:43:49;99217.13;;;-0.80;76.99
51261;BME280;61705;46.228;24.812;2023-02-13T15:48:44;99212.53;;;-0.92;77.92
51261;BME280;61705;46.228;24.812;2023-02-13T15:51:24;99209.44;;;-1.10;78.57
51261;BME280;61705;46.228;24.812;2023-02-13T15:53:57;99224.78;;;-1.20;78.49
51261;BME280;61705;46.228;24.812;2023-02-13T15:56:25;99222.13;;;-1.23;78.85
51261;BME280;61705;46.228;24.812;2023-02-13T15:58:55;99218.50;;;-1.29;78.77
51261;BME280;61705;46.228;24.812;2023-02-13T16:01:23;99221.66;;;-1.39;79.27
51261;BME280;61705;46.228;24.812;2023-02-13T16:04:13;99230.94;;;-1.48;79.62
51261;BME280;61705;46.228;24.812;2023-02-13T16:06:45;99229.81;;;-1.57;79.65